KPMH/PMH METAR and TAF weather

Enter ICAO airport designator
Station Type Date Time Source
KPMH METAR 2019/12/07 04:59 UTC NOAA

KPMH 070459Z AUTO 34003KT 10SM CLR 01/M02 A3034 RMK AO2 T00101020


Station Type Date Time Source
KPMH Decoded METAR 2019/12/07 04:59 UTC NOAA

Station name not available
Dec 06, 2019 - 11:59 PM EST / 2019.12.07 0459 UTC
Wind: from the NNW (340 degrees) at 3 MPH (3 KT):0
Visibility: 10 mile(s):0
Sky conditions: clear
Temperature: 33.8 F (1.0 C)
Dew Point: 28.4 F (-2.0 C)
Relative Humidity: 80%
Pressure (altimeter): 30.34 in. Hg (1027 hPa)
ob: KPMH 070459Z AUTO 34003KT 10SM CLR 01/M02 A3034 RMK AO2 T00101020
cycle: 5

Station Type Date Time Source
KPMH TAF UTC NOAA

Error!

Example: see airport list